sensor_id;sensor_type;location;lat;lon;timestamp;P1;durP1;ratioP1;P2;durP2;ratioP2
5026;SDS011;2532;52.480;13.354;2023-03-13T00:00:27;14.73;;;9.00;;
5026;SDS011;2532;52.480;13.354;2023-03-13T00:02:54;17.17;;;9.17;;
5026;SDS011;2532;52.480;13.354;2023-03-13T00:05:23;21.80;;;9.23;;
5026;SDS011;2532;52.480;13.354;2023-03-13T00:07:50;12.23;;;8.00;;
5026;SDS011;2532;52.480;13.354;2023-03-13T00:10:17;15.53;;;8.53;;
5026;SDS011;2532;52.480;13.354;2023-03-13T00:12:44;17.00;;;8.57;;
5026;SDS011;2532;52.480;13.354;2023-03-13T00:15:11;13.93;;;8.40;;
5026;SDS011;2532;52.480;13.354;2023-03-13T00:17:38;17.80;;;8.47;;
5026;SDS011;2532;52.480;13.354;2023-03-13T00:20:05;17.63;;;8.67;;
5026;SDS011;2532;52.480;13.354;2023-03-13T00:22:34;18.40;;;9.53;;
5026;SDS011;2532;52.480;13.354;2023-03-13T00:25:01;17.80;;;8.97;;
5026;SDS011;2532;52.480;13.354;2023-03-13T00:27:31;22.13;;;9.70;;
5026;SDS011;2532;52.480;13.354;2023-03-13T00:29:59;22.40;;;8.83;;
5026;SDS011;2532;52.480;13.354;2023-03-13T00:32:26;16.50;;;9.00;;
5026;SDS011;2532;52.480;13.354;2023-03-13T00:34:53;25.13;;;9.10;;
5026;SDS011;2532;52.480;13.354;2023-03-13T00:37:20;21.27;;;9.67;;
5026;SDS011;2532;52.480;13.354;2023-03-13T00:39:48;21.97;;;9.00;;
5026;SDS011;2532;52.480;13.354;2023-03-13T00:42:15;21.40;;;9.80;;
5026;SDS011;2532;52.480;13.354;2023-03-13T00:44:42;22.10;;;9.67;;
5026;SDS011;2532;52.480;13.354;2023-03-13T00:47:09;19.60;;;9.07;;
5026;SDS011;2532;52.480;13.354;2023-03-13T00:49:36;22.47;;;8.97;;
5026;SDS011;2532;52.480;13.354;2023-03-13T00:52:03;18.20;;;8.43;;
5026;SDS011;2532;52.480;13.354;2023-03-13T00:54:30;22.17;;;9.90;;
5026;SDS011;2532;52.480;13.354;2023-03-13T00:56:58;15.53;;;8.87;;
5026;SDS011;2532;52.480;13.354;2023-03-13T00:59:25;14.97;;;8.83;;
5026;SDS011;2532;52.480;13.354;2023-03-13T01:01:52;18.70;;;9.87;;
5026;SDS011;2532;52.480;13.354;2023-03-13T01:04:19;16.97;;;10.57;;
5026;SDS011;2532;52.480;13.354;2023-03-13T01:06:46;18.37;;;8.77;;
5026;SDS011;2532;52.480;13.354;2023-03-13T01:09:13;17.90;;;9.57;;
5026;SDS011;2532;52.480;13.354;2023-03-13T01:11:44;19.47;;;9.17;;
5026;SDS011;2532;52.480;13.354;2023-03-13T01:14:14;20.77;;;9.97;;
5026;SDS011;2532;52.480;13.354;2023-03-13T01:16:42;22.10;;;10.17;;
5026;SDS011;2532;52.480;13.354;2023-03-13T01:19:10;19.80;;;9.60;;
5026;SDS011;2532;52.480;13.354;2023-03-13T01:21:38;18.83;;;9.50;;
5026;SDS011;2532;52.480;13.354;2023-03-13T01:24:06;20.07;;;9.57;;
5026;SDS011;2532;52.480;13.354;2023-03-13T01:26:33;17.40;;;8.60;;
5026;SDS011;2532;52.480;13.354;2023-03-13T01:29:00;21.27;;;10.10;;
5026;SDS011;2532;52.480;13.354;2023-03-13T01:31:29;16.20;;;9.33;;
5026;SDS011;2532;52.480;13.354;2023-03-13T01:34:00;18.67;;;8.67;;
5026;SDS011;2532;52.480;13.354;2023-03-13T01:36:29;16.30;;;8.30;;
5026;SDS011;2532;52.480;13.354;2023-03-13T01:38:56;16.40;;;8.87;;
5026;SDS011;2532;52.480;13.354;2023-03-13T01:41:25;17.13;;;8.80;;
5026;SDS011;2532;52.480;13.354;2023-03-13T01:43:54;16.50;;;8.70;;
5026;SDS011;2532;52.480;13.354;2023-03-13T01:46:21;14.13;;;8.67;;
5026;SDS011;2532;52.480;13.354;2023-03-13T01:48:51;20.80;;;9.10;;
5026;SDS011;2532;52.480;13.354;2023-03-13T01:51:23;12.77;;;8.00;;
5026;SDS011;2532;52.480;13.354;2023-03-13T01:53:56;17.80;;;8.33;;
5026;SDS011;2532;52.480;13.354;2023-03-13T01:56:30;13.60;;;7.80;;
5026;SDS011;2532;52.480;13.354;2023-03-13T01:59:01;16.57;;;8.87;;
5026;SDS011;2532;52.480;13.354;2023-03-13T02:01:29;18.93;;;7.77;;
5026;SDS011;2532;52.480;13.354;2023-03-13T02:03:59;14.60;;;9.40;;
5026;SDS011;2532;52.480;13.354;2023-03-13T02:06:27;19.30;;;8.67;;
5026;SDS011;2532;52.480;13.354;2023-03-13T02:08:57;21.13;;;8.40;;
5026;SDS011;2532;52.480;13.354;2023-03-13T02:11:31;20.13;;;8.13;;
5026;SDS011;2532;52.480;13.354;2023-03-13T02:14:07;15.60;;;8.27;;
5026;SDS011;2532;52.480;13.354;2023-03-13T02:16:34;19.27;;;8.97;;
5026;SDS011;2532;52.480;13.354;2023-03-13T02:19:05;16.47;;;7.93;;
5026;SDS011;2532;52.480;13.354;2023-03-13T02:21:42;17.03;;;7.10;;
5026;SDS011;2532;52.480;13.354;2023-03-13T02:24:17;15.20;;;7.50;;
5026;SDS011;2532;52.480;13.354;2023-03-13T02:26:53;18.30;;;7.37;;
5026;SDS011;2532;52.480;13.354;2023-03-13T02:29:20;21.20;;;8.87;;
5026;SDS011;2532;52.480;13.354;2023-03-13T02:31:47;17.40;;;7.53;;
5026;SDS011;2532;52.480;13.354;2023-03-13T02:34:14;20.63;;;7.63;;
5026;SDS011;2532;52.480;13.354;2023-03-13T02:36:45;15.27;;;7.43;;
5026;SDS011;2532;52.480;13.354;2023-03-13T02:39:13;17.90;;;8.23;;
5026;SDS011;2532;52.480;13.354;2023-03-13T02:41:43;22.17;;;7.20;;
5026;SDS011;2532;52.480;13.354;2023-03-13T02:44:13;17.40;;;6.97;;
5026;SDS011;2532;52.480;13.354;2023-03-13T02:46:43;20.83;;;8.00;;
5026;SDS011;2532;52.480;13.354;2023-03-13T02:49:22;14.50;;;7.80;;
5026;SDS011;2532;52.480;13.354;2023-03-13T02:51:50;15.87;;;7.23;;
5026;SDS011;2532;52.480;13.354;2023-03-13T02:54:20;19.90;;;7.87;;
5026;SDS011;2532;52.480;13.354;2023-03-13T02:56:49;21.27;;;7.17;;
5026;SDS011;2532;52.480;13.354;2023-03-13T02:59:22;15.83;;;6.73;;
5026;SDS011;2532;52.480;13.354;2023-03-13T03:01:49;22.57;;;6.83;;
5026;SDS011;2532;52.480;13.354;2023-03-13T03:04:18;17.43;;;6.50;;
5026;SDS011;2532;52.480;13.354;2023-03-13T03:06:46;14.90;;;6.83;;
5026;SDS011;2532;52.480;13.354;2023-03-13T03:09:13;18.03;;;7.33;;
5026;SDS011;2532;52.480;13.354;2023-03-13T03:11:40;14.10;;;6.53;;
5026;SDS011;2532;52.480;13.354;2023-03-13T03:14:08;15.23;;;7.30;;
5026;SDS011;2532;52.480;13.354;2023-03-13T03:16:37;17.77;;;6.23;;
5026;SDS011;2532;52.480;13.354;2023-03-13T03:19:05;17.00;;;6.40;;
5026;SDS011;2532;52.480;13.354;2023-03-13T03:21:32;18.80;;;6.53;;
5026;SDS011;2532;52.480;13.354;2023-03-13T03:23:59;15.43;;;8.07;;
5026;SDS011;2532;52.480;13.354;2023-03-13T03:26:26;14.00;;;7.00;;
5026;SDS011;2532;52.480;13.354;2023-03-13T03:28:53;14.73;;;7.63;;
5026;SDS011;2532;52.480;13.354;2023-03-13T03:31:20;15.17;;;7.20;;
5026;SDS011;2532;52.480;13.354;2023-03-13T03:33:49;13.03;;;6.10;;
5026;SDS011;2532;52.480;13.354;2023-03-13T03:36:17;17.80;;;6.57;;
5026;SDS011;2532;52.480;13.354;2023-03-13T03:38:46;12.10;;;6.40;;
5026;SDS011;2532;52.480;13.354;2023-03-13T03:41:14;17.77;;;6.50;;
5026;SDS011;2532;52.480;13.354;2023-03-13T03:43:41;17.80;;;7.13;;
5026;SDS011;2532;52.480;13.354;2023-03-13T03:46:09;12.20;;;6.80;;
5026;SDS011;2532;52.480;13.354;2023-03-13T03:48:36;14.70;;;7.13;;
5026;SDS011;2532;52.480;13.354;2023-03-13T03:51:05;15.20;;;6.47;;
5026;SDS011;2532;52.480;13.354;2023-03-13T03:53:32;14.30;;;6.20;;
5026;SDS011;2532;52.480;13.354;2023-03-13T03:55:59;18.73;;;6.87;;
5026;SDS011;2532;52.480;13.354;2023-03-13T03:58:26;17.10;;;6.17;;
5026;SDS011;2532;52.480;13.354;2023-03-13T04:00:55;19.70;;;6.90;;
5026;SDS011;2532;52.480;13.354;2023-03-13T04:03:23;14.60;;;7.07;;
5026;SDS011;2532;52.480;13.354;2023-03-13T04:05:51;14.80;;;5.63;;
5026;SDS011;2532;52.480;13.354;2023-03-13T04:08:19;11.30;;;5.90;;
5026;SDS011;2532;52.480;13.354;2023-03-13T04:10:46;15.93;;;5.40;;
5026;SDS011;2532;52.480;13.354;2023-03-13T04:13:13;22.40;;;6.70;;
5026;SDS011;2532;52.480;13.354;2023-03-13T04:15:40;25.43;;;6.33;;
5026;SDS011;2532;52.480;13.354;2023-03-13T04:18:07;18.23;;;6.50;;
5026;SDS011;2532;52.480;13.354;2023-03-13T04:20:34;14.83;;;6.40;;
5026;SDS011;2532;52.480;13.354;2023-03-13T04:23:01;15.90;;;5.60;;
5026;SDS011;2532;52.480;13.354;2023-03-13T04:25:30;11.43;;;5.43;;
5026;SDS011;2532;52.480;13.354;2023-03-13T04:27:57;17.30;;;6.57;;
5026;SDS011;2532;52.480;13.354;2023-03-13T04:30:24;19.65;;;7.40;;
5026;SDS011;2532;52.480;13.354;2023-03-13T04:32:51;19.93;;;5.30;;
5026;SDS011;2532;52.480;13.354;2023-03-13T04:35:18;17.33;;;5.10;;
5026;SDS011;2532;52.480;13.354;2023-03-13T04:37:45;11.27;;;5.20;;
5026;SDS011;2532;52.480;13.354;2023-03-13T04:40:12;16.77;;;5.80;;
5026;SDS011;2532;52.480;13.354;2023-03-13T04:42:40;15.17;;;4.90;;
5026;SDS011;2532;52.480;13.354;2023-03-13T04:45:09;20.80;;;5.03;;
5026;SDS011;2532;52.480;13.354;2023-03-13T04:47:38;21.17;;;5.60;;
5026;SDS011;2532;52.480;13.354;2023-03-13T04:50:05;15.40;;;5.47;;
5026;SDS011;2532;52.480;13.354;2023-03-13T04:52:33;15.13;;;4.63;;
5026;SDS011;2532;52.480;13.354;2023-03-13T04:55:00;22.90;;;6.10;;
5026;SDS011;2532;52.480;13.354;2023-03-13T04:57:27;18.37;;;5.47;;
5026;SDS011;2532;52.480;13.354;2023-03-13T04:59:55;19.83;;;6.50;;
5026;SDS011;2532;52.480;13.354;2023-03-13T05:02:22;22.13;;;5.90;;
5026;SDS011;2532;52.480;13.354;2023-03-13T05:04:49;21.67;;;5.13;;
5026;SDS011;2532;52.480;13.354;2023-03-13T05:07:16;19.03;;;4.27;;
5026;SDS011;2532;52.480;13.354;2023-03-13T05:09:43;19.70;;;6.03;;
5026;SDS011;2532;52.480;13.354;2023-03-13T05:12:10;22.23;;;5.20;;
5026;SDS011;2532;52.480;13.354;2023-03-13T05:14:37;13.40;;;4.90;;
5026;SDS011;2532;52.480;13.354;2023-03-13T05:17:05;17.60;;;5.87;;
5026;SDS011;2532;52.480;13.354;2023-03-13T05:19:32;18.13;;;5.90;;
5026;SDS011;2532;52.480;13.354;2023-03-13T05:21:59;23.33;;;5.77;;
5026;SDS011;2532;52.480;13.354;2023-03-13T05:24:26;25.07;;;6.47;;
5026;SDS011;2532;52.480;13.354;2023-03-13T05:26:53;22.33;;;5.40;;
5026;SDS011;2532;52.480;13.354;2023-03-13T05:29:20;22.43;;;6.03;;
5026;SDS011;2532;52.480;13.354;2023-03-13T05:31:47;18.93;;;5.10;;
5026;SDS011;2532;52.480;13.354;2023-03-13T05:34:15;16.60;;;5.73;;
5026;SDS011;2532;52.480;13.354;2023-03-13T05:36:43;14.20;;;6.53;;
5026;SDS011;2532;52.480;13.354;2023-03-13T05:39:10;14.23;;;5.10;;
5026;SDS011;2532;52.480;13.354;2023-03-13T05:41:37;16.40;;;5.80;;
5026;SDS011;2532;52.480;13.354;2023-03-13T05:44:04;21.43;;;6.27;;
5026;SDS011;2532;52.480;13.354;2023-03-13T05:46:31;29.03;;;6.60;;
5026;SDS011;2532;52.480;13.354;2023-03-13T05:48:58;23.20;;;5.83;;
5026;SDS011;2532;52.480;13.354;2023-03-13T05:51:26;30.67;;;5.70;;
5026;SDS011;2532;52.480;13.354;2023-03-13T05:53:53;21.80;;;5.70;;
5026;SDS011;2532;52.480;13.354;2023-03-13T05:56:20;20.80;;;6.03;;
5026;SDS011;2532;52.480;13.354;2023-03-13T05:58:47;21.70;;;6.53;;
5026;SDS011;2532;52.480;13.354;2023-03-13T06:01:14;24.63;;;6.43;;
5026;SDS011;2532;52.480;13.354;2023-03-13T06:03:41;19.03;;;6.00;;
5026;SDS011;2532;52.480;13.354;2023-03-13T06:06:08;14.90;;;5.60;;
5026;SDS011;2532;52.480;13.354;2023-03-13T06:08:36;20.07;;;6.00;;
5026;SDS011;2532;52.480;13.354;2023-03-13T06:11:03;23.80;;;5.57;;
5026;SDS011;2532;52.480;13.354;2023-03-13T06:13:30;26.37;;;7.43;;
5026;SDS011;2532;52.480;13.354;2023-03-13T06:15:57;21.73;;;5.83;;
5026;SDS011;2532;52.480;13.354;2023-03-13T06:18:24;16.83;;;6.30;;
5026;SDS011;2532;52.480;13.354;2023-03-13T06:20:55;27.37;;;6.00;;
5026;SDS011;2532;52.480;13.354;2023-03-13T06:23:23;23.70;;;8.13;;
5026;SDS011;2532;52.480;13.354;2023-03-13T06:25:52;22.87;;;8.00;;
5026;SDS011;2532;52.480;13.354;2023-03-13T06:28:19;22.93;;;7.07;;
5026;SDS011;2532;52.480;13.354;2023-03-13T06:30:46;19.47;;;5.63;;
5026;SDS011;2532;52.480;13.354;2023-03-13T06:33:13;13.73;;;6.10;;
5026;SDS011;2532;52.480;13.354;2023-03-13T06:35:40;23.17;;;7.00;;
5026;SDS011;2532;52.480;13.354;2023-03-13T06:38:08;21.33;;;7.03;;
5026;SDS011;2532;52.480;13.354;2023-03-13T06:40:36;20.20;;;6.73;;
5026;SDS011;2532;52.480;13.354;2023-03-13T06:43:04;30.27;;;7.00;;
5026;SDS011;2532;52.480;13.354;2023-03-13T06:45:31;18.70;;;7.67;;
5026;SDS011;2532;52.480;13.354;2023-03-13T06:48:00;28.60;;;10.37;;
5026;SDS011;2532;52.480;13.354;2023-03-13T06:50:27;29.23;;;7.47;;
5026;SDS011;2532;52.480;13.354;2023-03-13T06:52:54;24.03;;;6.37;;
5026;SDS011;2532;52.480;13.354;2023-03-13T06:55:22;27.63;;;6.90;;
5026;SDS011;2532;52.480;13.354;2023-03-13T06:57:49;21.87;;;6.27;;
5026;SDS011;2532;52.480;13.354;2023-03-13T07:00:18;23.77;;;6.70;;
5026;SDS011;2532;52.480;13.354;2023-03-13T07:02:46;19.53;;;5.93;;
5026;SDS011;2532;52.480;13.354;2023-03-13T07:05:13;22.07;;;6.60;;
5026;SDS011;2532;52.480;13.354;2023-03-13T07:07:40;22.63;;;10.60;;
5026;SDS011;2532;52.480;13.354;2023-03-13T07:10:08;24.33;;;6.40;;
5026;SDS011;2532;52.480;13.354;2023-03-13T07:12:36;22.43;;;6.30;;
5026;SDS011;2532;52.480;13.354;2023-03-13T07:15:03;22.00;;;7.03;;
5026;SDS011;2532;52.480;13.354;2023-03-13T07:17:32;18.87;;;5.83;;
5026;SDS011;2532;52.480;13.354;2023-03-13T07:19:59;19.50;;;7.40;;
5026;SDS011;2532;52.480;13.354;2023-03-13T07:22:26;15.33;;;6.80;;
5026;SDS011;2532;52.480;13.354;2023-03-13T07:24:53;24.50;;;7.23;;
5026;SDS011;2532;52.480;13.354;2023-03-13T07:27:20;21.03;;;5.70;;
5026;SDS011;2532;52.480;13.354;2023-03-13T07:29:47;22.30;;;6.30;;
5026;SDS011;2532;52.480;13.354;2023-03-13T07:32:14;22.30;;;7.37;;
5026;SDS011;2532;52.480;13.354;2023-03-13T07:34:43;21.80;;;6.27;;
5026;SDS011;2532;52.480;13.354;2023-03-13T07:37:10;22.17;;;7.53;;
5026;SDS011;2532;52.480;13.354;2023-03-13T07:39:37;24.23;;;6.43;;
5026;SDS011;2532;52.480;13.354;2023-03-13T07:42:04;20.87;;;6.57;;
5026;SDS011;2532;52.480;13.354;2023-03-13T07:44:31;26.70;;;6.37;;
5026;SDS011;2532;52.480;13.354;2023-03-13T07:46:58;24.93;;;6.33;;
5026;SDS011;2532;52.480;13.354;2023-03-13T07:49:25;16.40;;;6.87;;
5026;SDS011;2532;52.480;13.354;2023-03-13T07:51:54;19.27;;;6.97;;
5026;SDS011;2532;52.480;13.354;2023-03-13T07:54:21;21.00;;;6.70;;
5026;SDS011;2532;52.480;13.354;2023-03-13T07:56:48;17.70;;;6.30;;
5026;SDS011;2532;52.480;13.354;2023-03-13T07:59:16;21.23;;;6.20;;
5026;SDS011;2532;52.480;13.354;2023-03-13T08:01:42;18.27;;;5.87;;
5026;SDS011;2532;52.480;13.354;2023-03-13T08:04:10;21.80;;;6.10;;
5026;SDS011;2532;52.480;13.354;2023-03-13T08:06:38;24.80;;;6.50;;
5026;SDS011;2532;52.480;13.354;2023-03-13T08:09:07;22.57;;;6.07;;
5026;SDS011;2532;52.480;13.354;2023-03-13T08:11:34;19.37;;;5.70;;
5026;SDS011;2532;52.480;13.354;2023-03-13T08:14:04;14.33;;;5.90;;
5026;SDS011;2532;52.480;13.354;2023-03-13T08:16:31;22.43;;;5.20;;
5026;SDS011;2532;52.480;13.354;2023-03-13T08:19:00;14.53;;;6.00;;
5026;SDS011;2532;52.480;13.354;2023-03-13T08:21:30;21.30;;;6.30;;
5026;SDS011;2532;52.480;13.354;2023-03-13T08:23:59;15.77;;;5.97;;
5026;SDS011;2532;52.480;13.354;2023-03-13T08:26:31;17.97;;;6.83;;
5026;SDS011;2532;52.480;13.354;2023-03-13T08:28:59;14.30;;;5.90;;
5026;SDS011;2532;52.480;13.354;2023-03-13T08:31:28;16.20;;;6.00;;
5026;SDS011;2532;52.480;13.354;2023-03-13T08:33:56;18.77;;;6.03;;
5026;SDS011;2532;52.480;13.354;2023-03-13T08:36:24;17.73;;;6.50;;
5026;SDS011;2532;52.480;13.354;2023-03-13T08:38:53;13.83;;;5.67;;
5026;SDS011;2532;52.480;13.354;2023-03-13T08:41:21;17.77;;;5.30;;
5026;SDS011;2532;52.480;13.354;2023-03-13T08:43:51;17.30;;;5.10;;
5026;SDS011;2532;52.480;13.354;2023-03-13T08:46:19;15.57;;;5.93;;
5026;SDS011;2532;52.480;13.354;2023-03-13T08:48:47;16.13;;;5.63;;
5026;SDS011;2532;52.480;13.354;2023-03-13T08:51:15;12.40;;;4.50;;
5026;SDS011;2532;52.480;13.354;2023-03-13T08:53:43;25.63;;;6.57;;
5026;SDS011;2532;52.480;13.354;2023-03-13T08:56:11;15.73;;;6.00;;
5026;SDS011;2532;52.480;13.354;2023-03-13T08:58:39;21.47;;;5.57;;
5026;SDS011;2532;52.480;13.354;2023-03-13T09:01:08;19.73;;;7.77;;
5026;SDS011;2532;52.480;13.354;2023-03-13T09:03:36;12.83;;;4.60;;
5026;SDS011;2532;52.480;13.354;2023-03-13T09:06:04;18.00;;;6.20;;
5026;SDS011;2532;52.480;13.354;2023-03-13T09:08:31;11.97;;;5.17;;
5026;SDS011;2532;52.480;13.354;2023-03-13T09:10:59;17.47;;;5.03;;
5026;SDS011;2532;52.480;13.354;2023-03-13T09:13:27;15.47;;;5.30;;
5026;SDS011;2532;52.480;13.354;2023-03-13T09:15:55;14.80;;;4.97;;
5026;SDS011;2532;52.480;13.354;2023-03-13T09:18:24;16.90;;;5.83;;
5026;SDS011;2532;52.480;13.354;2023-03-13T09:20:51;11.17;;;4.80;;
5026;SDS011;2532;52.480;13.354;2023-03-13T09:23:19;13.77;;;4.63;;
5026;SDS011;2532;52.480;13.354;2023-03-13T09:25:47;16.47;;;5.17;;
5026;SDS011;2532;52.480;13.354;2023-03-13T09:28:14;12.87;;;4.50;;
5026;SDS011;2532;52.480;13.354;2023-03-13T09:30:41;17.37;;;5.23;;
5026;SDS011;2532;52.480;13.354;2023-03-13T09:33:08;15.23;;;5.33;;
5026;SDS011;2532;52.480;13.354;2023-03-13T09:35:38;21.37;;;5.37;;
5026;SDS011;2532;52.480;13.354;2023-03-13T09:38:05;10.90;;;4.70;;
5026;SDS011;2532;52.480;13.354;2023-03-13T09:40:35;11.33;;;4.60;;
5026;SDS011;2532;52.480;13.354;2023-03-13T09:43:03;14.80;;;5.00;;
5026;SDS011;2532;52.480;13.354;2023-03-13T09:45:31;13.10;;;4.53;;
5026;SDS011;2532;52.480;13.354;2023-03-13T09:48:01;15.97;;;4.67;;
5026;SDS011;2532;52.480;13.354;2023-03-13T09:50:32;12.73;;;4.97;;
5026;SDS011;2532;52.480;13.354;2023-03-13T09:53:03;14.23;;;4.97;;
5026;SDS011;2532;52.480;13.354;2023-03-13T09:55:38;11.13;;;5.90;;
5026;SDS011;2532;52.480;13.354;2023-03-13T09:58:10;11.53;;;4.27;;
5026;SDS011;2532;52.480;13.354;2023-03-13T10:00:42;13.00;;;5.00;;
5026;SDS011;2532;52.480;13.354;2023-03-13T10:03:15;37.17;;;8.20;;
5026;SDS011;2532;52.480;13.354;2023-03-13T10:05:46;10.03;;;4.10;;
5026;SDS011;2532;52.480;13.354;2023-03-13T10:08:18;26.27;;;6.20;;
5026;SDS011;2532;52.480;13.354;2023-03-13T10:10:48;13.80;;;3.87;;
5026;SDS011;2532;52.480;13.354;2023-03-13T10:13:21;26.87;;;6.53;;
5026;SDS011;2532;52.480;13.354;2023-03-13T10:15:54;11.00;;;4.57;;
5026;SDS011;2532;52.480;13.354;2023-03-13T10:18:24;10.53;;;3.47;;
5026;SDS011;2532;52.480;13.354;2023-03-13T10:20:52;9.17;;;4.00;;
5026;SDS011;2532;52.480;13.354;2023-03-13T10:23:26;13.00;;;4.80;;
5026;SDS011;2532;52.480;13.354;2023-03-13T10:26:00;7.50;;;3.80;;
5026;SDS011;2532;52.480;13.354;2023-03-13T10:28:27;9.80;;;4.67;;
5026;SDS011;2532;52.480;13.354;2023-03-13T10:30:56;8.10;;;3.70;;
5026;SDS011;2532;52.480;13.354;2023-03-13T10:33:33;10.10;;;4.10;;
5026;SDS011;2532;52.480;13.354;2023-03-13T10:36:04;12.83;;;4.20;;
5026;SDS011;2532;52.480;13.354;2023-03-13T10:38:43;8.50;;;4.00;;
5026;SDS011;2532;52.480;13.354;2023-03-13T10:41:24;9.97;;;4.10;;
5026;SDS011;2532;52.480;13.354;2023-03-13T10:43:54;8.53;;;4.10;;
5026;SDS011;2532;52.480;13.354;2023-03-13T10:46:25;10.80;;;5.20;;
5026;SDS011;2532;52.480;13.354;2023-03-13T10:48:53;12.50;;;4.40;;
5026;SDS011;2532;52.480;13.354;2023-03-13T10:51:21;9.70;;;4.80;;
5026;SDS011;2532;52.480;13.354;2023-03-13T10:53:51;13.87;;;5.80;;
5026;SDS011;2532;52.480;13.354;2023-03-13T10:56:21;14.63;;;5.90;;
5026;SDS011;2532;52.480;13.354;2023-03-13T10:58:52;16.00;;;6.40;;
5026;SDS011;2532;52.480;13.354;2023-03-13T11:01:21;17.50;;;5.73;;
5026;SDS011;2532;52.480;13.354;2023-03-13T11:03:49;19.97;;;6.93;;
5026;SDS011;2532;52.480;13.354;2023-03-13T11:06:28;15.20;;;5.27;;
5026;SDS011;2532;52.480;13.354;2023-03-13T11:09:04;8.53;;;3.70;;
5026;SDS011;2532;52.480;13.354;2023-03-13T11:11:42;8.97;;;3.37;;
5026;SDS011;2532;52.480;13.354;2023-03-13T11:14:12;6.63;;;4.40;;
5026;SDS011;2532;52.480;13.354;2023-03-13T11:16:45;12.30;;;5.27;;
5026;SDS011;2532;52.480;13.354;2023-03-13T11:22:14;6.83;;;4.50;;
5026;SDS011;2532;52.480;13.354;2023-03-13T11:24:54;7.83;;;3.10;;
5026;SDS011;2532;52.480;13.354;2023-03-13T11:27:29;8.90;;;4.30;;
5026;SDS011;2532;52.480;13.354;2023-03-13T11:30:07;13.30;;;5.70;;
5026;SDS011;2532;52.480;13.354;2023-03-13T11:32:42;11.10;;;5.90;;
5026;SDS011;2532;52.480;13.354;2023-03-13T11:35:17;7.07;;;4.33;;
5026;SDS011;2532;52.480;13.354;2023-03-13T11:37:56;11.80;;;5.83;;
5026;SDS011;2532;52.480;13.354;2023-03-13T11:40:28;6.00;;;4.00;;
5026;SDS011;2532;52.480;13.354;2023-03-13T11:46:06;7.20;;;3.60;;
5026;SDS011;2532;52.480;13.354;2023-03-13T11:48:57;4.53;;;3.50;;
5026;SDS011;2532;52.480;13.354;2023-03-13T11:51:47;4.43;;;2.83;;
5026;SDS011;2532;52.480;13.354;2023-03-13T11:54:32;4.37;;;3.07;;
5026;SDS011;2532;52.480;13.354;2023-03-13T11:57:23;3.40;;;2.53;;
5026;SDS011;2532;52.480;13.354;2023-03-13T11:59:59;2.83;;;2.53;;
5026;SDS011;2532;52.480;13.354;2023-03-13T12:02:43;3.70;;;3.03;;
5026;SDS011;2532;52.480;13.354;2023-03-13T12:05:19;4.30;;;3.43;;
5026;SDS011;2532;52.480;13.354;2023-03-13T12:07:52;4.53;;;2.73;;
5026;SDS011;2532;52.480;13.354;2023-03-13T12:10:24;5.10;;;3.40;;
5026;SDS011;2532;52.480;13.354;2023-03-13T12:12:58;5.47;;;2.70;;
5026;SDS011;2532;52.480;13.354;2023-03-13T12:15:30;6.33;;;2.80;;
5026;SDS011;2532;52.480;13.354;2023-03-13T12:18:02;3.97;;;2.37;;
5026;SDS011;2532;52.480;13.354;2023-03-13T12:20:33;4.70;;;2.77;;
5026;SDS011;2532;52.480;13.354;2023-03-13T12:23:14;4.13;;;2.60;;
5026;SDS011;2532;52.480;13.354;2023-03-13T12:25:44;2.80;;;2.33;;
5026;SDS011;2532;52.480;13.354;2023-03-13T12:28:26;3.30;;;2.30;;
5026;SDS011;2532;52.480;13.354;2023-03-13T12:31:00;3.20;;;2.57;;
5026;SDS011;2532;52.480;13.354;2023-03-13T12:33:35;3.27;;;2.67;;
5026;SDS011;2532;52.480;13.354;2023-03-13T12:36:09;2.90;;;2.20;;
5026;SDS011;2532;52.480;13.354;2023-03-13T12:38:40;3.10;;;2.80;;
5026;SDS011;2532;52.480;13.354;2023-03-13T12:41:16;2.37;;;2.10;;
5026;SDS011;2532;52.480;13.354;2023-03-13T12:43:50;5.53;;;2.33;;
5026;SDS011;2532;52.480;13.354;2023-03-13T12:46:26;3.97;;;2.40;;
5026;SDS011;2532;52.480;13.354;2023-03-13T12:52:04;2.13;;;1.93;;
5026;SDS011;2532;52.480;13.354;2023-03-13T12:54:56;3.90;;;2.20;;
5026;SDS011;2532;52.480;13.354;2023-03-13T13:00:30;2.77;;;2.10;;
5026;SDS011;2532;52.480;13.354;2023-03-13T13:03:02;3.67;;;2.20;;
5026;SDS011;2532;52.480;13.354;2023-03-13T13:05:35;3.30;;;2.40;;
5026;SDS011;2532;52.480;13.354;2023-03-13T13:08:03;2.70;;;2.03;;
5026;SDS011;2532;52.480;13.354;2023-03-13T13:10:30;2.20;;;2.00;;
5026;SDS011;2532;52.480;13.354;2023-03-13T13:13:16;3.80;;;2.47;;
5026;SDS011;2532;52.480;13.354;2023-03-13T13:15:59;4.47;;;2.57;;
5026;SDS011;2532;52.480;13.354;2023-03-13T13:18:28;2.10;;;1.90;;
5026;SDS011;2532;52.480;13.354;2023-03-13T13:23:45;2.27;;;2.07;;
5026;SDS011;2532;52.480;13.354;2023-03-13T13:32:29;3.90;;;2.20;;
5026;SDS011;2532;52.480;13.354;2023-03-13T13:35:02;4.80;;;2.40;;
5026;SDS011;2532;52.480;13.354;2023-03-13T13:37:31;2.30;;;2.10;;
5026;SDS011;2532;52.480;13.354;2023-03-13T13:40:15;3.90;;;2.07;;
5026;SDS011;2532;52.480;13.354;2023-03-13T13:42:48;2.20;;;2.00;;
5026;SDS011;2532;52.480;13.354;2023-03-13T13:45:27;3.30;;;2.43;;
5026;SDS011;2532;52.480;13.354;2023-03-13T13:48:21;2.93;;;2.03;;
5026;SDS011;2532;52.480;13.354;2023-03-13T13:53:50;4.10;;;3.07;;
5026;SDS011;2532;52.480;13.354;2023-03-13T13:56:29;2.77;;;2.30;;
5026;SDS011;2532;52.480;13.354;2023-03-13T13:59:13;4.30;;;2.30;;
5026;SDS011;2532;52.480;13.354;2023-03-13T14:02:13;2.93;;;2.47;;
5026;SDS011;2532;52.480;13.354;2023-03-13T14:04:48;3.73;;;2.43;;
5026;SDS011;2532;52.480;13.354;2023-03-13T14:07:43;3.70;;;2.13;;
5026;SDS011;2532;52.480;13.354;2023-03-13T14:10:16;3.03;;;2.50;;
5026;SDS011;2532;52.480;13.354;2023-03-13T14:12:57;2.63;;;2.43;;
5026;SDS011;2532;52.480;13.354;2023-03-13T14:15:26;2.30;;;2.10;;
5026;SDS011;2532;52.480;13.354;2023-03-13T14:17:56;5.90;;;2.17;;
5026;SDS011;2532;52.480;13.354;2023-03-13T14:20:31;10.60;;;2.87;;
5026;SDS011;2532;52.480;13.354;2023-03-13T14:23:00;2.70;;;2.47;;
5026;SDS011;2532;52.480;13.354;2023-03-13T14:25:40;5.60;;;2.60;;
5026;SDS011;2532;52.480;13.354;2023-03-13T14:28:17;4.87;;;3.50;;
5026;SDS011;2532;52.480;13.354;2023-03-13T14:30:45;3.83;;;2.90;;
5026;SDS011;2532;52.480;13.354;2023-03-13T14:33:13;4.53;;;3.00;;
5026;SDS011;2532;52.480;13.354;2023-03-13T14:35:42;2.70;;;2.50;;
5026;SDS011;2532;52.480;13.354;2023-03-13T14:38:18;5.43;;;3.17;;
5026;SDS011;2532;52.480;13.354;2023-03-13T14:40:46;2.90;;;2.40;;
5026;SDS011;2532;52.480;13.354;2023-03-13T14:43:22;3.77;;;2.70;;
5026;SDS011;2532;52.480;13.354;2023-03-13T14:45:55;6.43;;;2.67;;
5026;SDS011;2532;52.480;13.354;2023-03-13T14:48:23;3.57;;;2.20;;
5026;SDS011;2532;52.480;13.354;2023-03-13T14:50:59;4.13;;;2.60;;
5026;SDS011;2532;52.480;13.354;2023-03-13T14:53:28;5.33;;;2.30;;
5026;SDS011;2532;52.480;13.354;2023-03-13T14:58:39;2.40;;;2.20;;
5026;SDS011;2532;52.480;13.354;2023-03-13T15:01:13;3.93;;;2.47;;
5026;SDS011;2532;52.480;13.354;2023-03-13T15:03:49;4.33;;;2.90;;
5026;SDS011;2532;52.480;13.354;2023-03-13T15:06:26;4.83;;;2.53;;
5026;SDS011;2532;52.480;13.354;2023-03-13T15:11:40;3.10;;;2.43;;
5026;SDS011;2532;52.480;13.354;2023-03-13T15:14:30;4.73;;;2.53;;
5026;SDS011;2532;52.480;13.354;2023-03-13T15:17:04;2.80;;;2.37;;
5026;SDS011;2532;52.480;13.354;2023-03-13T15:19:47;4.67;;;2.23;;
5026;SDS011;2532;52.480;13.354;2023-03-13T15:22:28;5.97;;;2.40;;
5026;SDS011;2532;52.480;13.354;2023-03-13T15:24:56;4.73;;;2.70;;
5026;SDS011;2532;52.480;13.354;2023-03-13T15:27:24;5.87;;;2.27;;
5026;SDS011;2532;52.480;13.354;2023-03-13T15:29:52;5.50;;;2.70;;
5026;SDS011;2532;52.480;13.354;2023-03-13T15:32:23;2.63;;;2.13;;
5026;SDS011;2532;52.480;13.354;2023-03-13T15:34:54;4.37;;;3.17;;
5026;SDS011;2532;52.480;13.354;2023-03-13T15:37:27;4.23;;;2.50;;